createdAt,value
2018-09-02T00:00:48.028Z,11.16
2018-09-02T00:03:48.206Z,11.08
2018-09-02T00:04:48.268Z,10.99
2018-09-02T00:05:48.325Z,10.80
2018-09-02T00:06:48.589Z,10.78
2018-09-02T00:07:48.445Z,10.81
2018-09-02T00:08:48.503Z,10.81
2018-09-02T00:10:48.621Z,10.84
2018-09-02T00:11:48.681Z,10.83
2018-09-02T00:12:49.143Z,10.84
2018-09-02T00:13:48.803Z,10.81
2018-09-02T00:14:48.858Z,10.86
2018-09-02T00:15:48.917Z,10.83
2018-09-02T00:16:48.977Z,10.98
2018-09-02T00:17:49.036Z,10.83
2018-09-02T00:20:49.214Z,10.84
2018-09-02T00:21:49.424Z,10.69
2018-09-02T00:23:49.392Z,10.81
2018-09-02T00:24:49.450Z,10.73
2018-09-02T00:25:49.511Z,10.55
2018-09-02T00:26:49.571Z,10.57
2018-09-02T00:27:49.628Z,10.44
2018-09-02T00:28:49.688Z,10.42
2018-09-02T00:29:49.749Z,10.31
2018-09-02T00:30:49.806Z,10.32
2018-09-02T00:31:49.864Z,10.35
2018-09-02T00:32:49.925Z,10.32
2018-09-02T00:33:50.088Z,10.34
2018-09-02T00:34:50.043Z,10.43
2018-09-02T00:35:50.102Z,10.46
2018-09-02T00:36:50.161Z,10.42
2018-09-02T00:37:50.225Z,10.39
2018-09-02T00:38:50.283Z,10.46
2018-09-02T00:39:50.343Z,10.44
2018-09-02T00:40:50.398Z,10.35
2018-09-02T00:41:50.467Z,10.51
2018-09-02T00:42:50.517Z,10.55
2018-09-02T00:43:50.574Z,10.51
2018-09-02T00:44:50.633Z,10.51
2018-09-02T00:45:50.693Z,10.51
2018-09-02T00:46:50.753Z,10.51
2018-09-02T00:47:50.811Z,10.49
2018-09-02T00:48:50.869Z,10.42
2018-09-02T00:49:50.929Z,10.57
2018-09-02T00:50:50.988Z,10.54
2018-09-02T00:51:51.047Z,10.43
2018-09-02T00:52:51.109Z,10.42
2018-09-02T00:53:51.165Z,10.39
2018-09-02T00:54:51.224Z,10.36
2018-09-02T00:55:51.283Z,10.31
2018-09-02T00:56:51.343Z,10.38
2018-09-02T00:57:51.404Z,10.42
2018-09-02T00:58:51.460Z,10.43
2018-09-02T00:59:51.517Z,10.51
2018-09-02T01:00:51.577Z,10.43
2018-09-02T01:01:51.637Z,10.44
2018-09-02T01:02:51.696Z,10.54
2018-09-02T01:03:51.754Z,10.60
2018-09-02T01:04:51.813Z,10.65
2018-09-02T01:05:51.872Z,10.58
2018-09-02T01:06:51.932Z,10.58
2018-09-02T01:07:51.990Z,10.66
2018-09-02T01:08:52.050Z,10.58
2018-09-02T01:09:52.108Z,10.68
2018-09-02T01:10:52.167Z,10.52
2018-09-02T01:11:52.225Z,10.46
2018-09-02T01:12:52.285Z,10.32
2018-09-02T01:13:52.347Z,10.36
2018-09-02T01:14:52.406Z,10.42
2018-09-02T01:15:52.461Z,10.32
2018-09-02T01:16:52.520Z,10.46
2018-09-02T01:17:52.579Z,10.31
2018-09-02T01:18:52.642Z,10.46
2018-09-02T01:19:52.696Z,10.51
2018-09-02T01:20:52.755Z,10.49
2018-09-02T01:21:52.814Z,10.55
2018-09-02T01:22:52.930Z,10.51
2018-09-02T01:23:52.936Z,10.42
2018-09-02T01:24:52.991Z,10.42
2018-09-02T01:25:53.050Z,10.62
2018-09-02T01:26:53.109Z,10.68
2018-09-02T01:27:53.167Z,10.43
2018-09-02T01:28:53.226Z,10.44
2018-09-02T01:29:53.285Z,10.38
2018-09-02T01:30:53.343Z,10.49
2018-09-02T01:31:53.402Z,10.32
2018-09-02T01:32:53.463Z,10.32
2018-09-02T01:33:53.521Z,10.43
2018-09-02T01:34:53.582Z,10.42
2018-09-02T01:35:53.637Z,10.31
2018-09-02T01:36:53.697Z,10.25
2018-09-02T01:37:53.756Z,10.18
2018-09-02T01:38:53.814Z,10.28
2018-09-02T01:39:53.876Z,10.28
2018-09-02T01:40:53.932Z,10.32
2018-09-02T01:41:53.991Z,10.25
2018-09-02T01:42:54.051Z,10.20
2018-09-02T01:43:54.109Z,10.34
2018-09-02T01:44:54.169Z,10.18
2018-09-02T01:45:54.225Z,10.20
2018-09-02T01:46:54.284Z,10.18
2018-09-02T01:47:54.342Z,10.24
2018-09-02T01:48:54.403Z,10.22
2018-09-02T01:49:54.461Z,10.24
2018-09-02T01:50:54.524Z,10.24
2018-09-02T01:51:54.577Z,10.18
2018-09-02T01:52:54.636Z,10.07
2018-09-02T01:53:54.695Z,10.06
2018-09-02T01:54:54.754Z,10.10
2018-09-02T01:55:54.812Z,10.10
2018-09-02T01:56:54.871Z,10.09
2018-09-02T01:57:54.930Z,10.09
2018-09-02T01:58:54.990Z,10.06
2018-09-02T01:59:55.048Z,10.07
2018-09-02T02:00:55.116Z,10.20
2018-09-02T02:01:55.166Z,10.18
2018-09-02T02:02:55.378Z,10.10
2018-09-02T02:03:55.281Z,10.07
2018-09-02T02:04:55.341Z,10.11
2018-09-02T02:05:55.400Z,9.96
2018-09-02T02:06:55.459Z,10.06
2018-09-02T02:07:55.517Z,10.16
2018-09-02T02:08:55.576Z,9.99
2018-09-02T02:09:55.635Z,9.96
2018-09-02T02:10:55.699Z,10.06
2018-09-02T02:11:55.751Z,10.07
2018-09-02T02:12:55.810Z,9.98
2018-09-02T02:13:55.869Z,9.95
2018-09-02T02:14:55.927Z,9.77
2018-09-02T02:15:55.987Z,9.81
2018-09-02T02:16:56.045Z,9.95
2018-09-02T02:17:56.104Z,9.80
2018-09-02T02:18:56.163Z,9.91
2018-09-02T02:19:56.221Z,9.92
2018-09-02T02:20:56.279Z,9.98
2018-09-02T02:21:56.338Z,9.77
2018-09-02T02:22:56.397Z,9.83
2018-09-02T02:23:56.454Z,9.78
2018-09-02T02:24:56.515Z,9.74
2018-09-02T02:25:56.614Z,9.74
2018-09-02T02:26:56.647Z,9.85
2018-09-02T02:27:56.699Z,9.88
2018-09-02T02:28:56.748Z,9.85
2018-09-02T02:29:56.807Z,9.91
2018-09-02T02:30:56.883Z,9.88
2018-09-02T02:31:56.925Z,9.86
2018-09-02T02:32:56.981Z,9.85
2018-09-02T02:33:57.042Z,9.73
2018-09-02T02:34:57.100Z,9.67
2018-09-02T02:35:57.157Z,9.74
2018-09-02T02:36:57.216Z,9.74
2018-09-02T02:37:57.277Z,9.71
2018-09-02T02:38:57.336Z,9.71
2018-09-02T02:39:57.392Z,9.73
2018-09-02T02:40:57.452Z,9.63
2018-09-02T02:41:57.511Z,9.45
2018-09-02T02:42:57.821Z,9.50
2018-09-02T02:43:57.627Z,9.40
2018-09-02T02:44:57.685Z,9.40
2018-09-02T02:45:57.744Z,9.37
2018-09-02T02:46:57.803Z,9.37
2018-09-02T02:47:57.861Z,9.24
2018-09-02T02:48:57.920Z,9.30
2018-09-02T02:49:57.979Z,9.35
2018-09-02T02:50:58.038Z,9.32
2018-09-02T02:51:58.095Z,9.27
2018-09-02T02:52:58.154Z,9.22
2018-09-02T02:53:58.213Z,9.27
2018-09-02T02:54:58.273Z,9.32
2018-09-02T02:55:58.331Z,9.24
2018-09-02T02:56:58.388Z,9.27
2018-09-02T02:57:58.445Z,9.32
2018-09-02T02:58:58.505Z,9.32
2018-09-02T02:59:58.564Z,9.27
2018-09-02T03:00:58.622Z,9.35
2018-09-02T03:01:58.680Z,9.34
2018-09-02T03:02:58.739Z,9.27
2018-09-02T03:03:58.797Z,9.35
2018-09-02T03:04:58.856Z,9.41
2018-09-02T03:05:58.929Z,9.37
2018-09-02T03:06:58.973Z,9.37
2018-09-02T03:07:59.034Z,9.44
2018-09-02T03:08:59.090Z,9.31
2018-09-02T03:09:59.148Z,9.34
2018-09-02T03:11:59.265Z,9.38
2018-09-02T03:12:59.324Z,9.34
2018-09-02T03:13:59.382Z,9.34
2018-09-02T03:14:59.441Z,9.38
2018-09-02T03:15:59.502Z,9.32
2018-09-02T03:16:59.558Z,9.31
2018-09-02T03:17:59.617Z,9.38
2018-09-02T03:18:59.675Z,9.30
2018-09-02T03:19:59.733Z,9.27
2018-09-02T03:20:59.792Z,9.34
2018-09-02T03:21:59.851Z,9.32
2018-09-02T03:22:59.909Z,9.24
2018-09-02T03:23:59.969Z,9.19
2018-09-02T03:25:00.026Z,9.37
2018-09-02T03:26:00.085Z,9.24
2018-09-02T03:27:00.144Z,9.30
2018-09-02T03:28:00.201Z,9.31
2018-09-02T03:29:00.259Z,9.37
2018-09-02T03:30:00.318Z,9.22
2018-09-02T03:31:00.377Z,9.37
2018-09-02T03:32:00.437Z,9.24
2018-09-02T03:33:00.494Z,9.31
2018-09-02T03:34:00.552Z,9.34
2018-09-02T03:35:00.612Z,9.30
2018-09-02T03:36:00.668Z,9.22
2018-09-02T03:37:00.727Z,9.32
2018-09-02T03:38:00.786Z,9.30
2018-09-02T03:39:00.848Z,9.31
2018-09-02T03:40:00.901Z,9.20
2018-09-02T03:41:00.960Z,9.22
2018-09-02T03:42:01.021Z,9.00
2018-09-02T03:43:01.077Z,9.00
2018-09-02T03:44:01.134Z,8.89
2018-09-02T03:45:01.193Z,8.97
2018-09-02T03:46:01.254Z,9.10
2018-09-02T03:47:01.314Z,9.08
2018-09-02T03:48:01.373Z,9.01
2018-09-02T03:49:01.427Z,8.94
2018-09-02T03:50:01.486Z,9.01
2018-09-02T03:51:01.544Z,8.97
2018-09-02T03:52:01.601Z,8.89
2018-09-02T03:53:01.660Z,8.93
2018-09-02T03:54:01.720Z,8.89
2018-09-02T03:55:01.778Z,8.76
2018-09-02T03:56:01.836Z,8.80
2018-09-02T03:57:01.895Z,8.82
2018-09-02T03:58:01.952Z,8.86
2018-09-02T03:59:02.011Z,9.00
2018-09-02T04:00:02.068Z,8.94
2018-09-02T04:01:02.130Z,8.89
2018-09-02T04:02:02.185Z,9.01
2018-09-02T04:03:02.244Z,9.00
2018-09-02T04:04:02.302Z,8.94
2018-09-02T04:05:02.360Z,8.97
2018-09-02T04:06:02.418Z,8.97
2018-09-02T04:07:02.478Z,8.89
2018-09-02T04:08:02.535Z,9.01
2018-09-02T04:09:02.594Z,8.96
2018-09-02T04:10:02.653Z,8.89
2018-09-02T04:11:02.710Z,8.91
2018-09-02T04:12:02.768Z,8.85
2018-09-02T04:13:02.828Z,8.93
2018-09-02T04:14:02.913Z,8.83
2018-09-02T04:15:02.944Z,8.94
2018-09-02T04:16:03.001Z,8.96
2018-09-02T04:17:03.059Z,8.98
2018-09-02T04:18:03.119Z,8.96
2018-09-02T04:19:03.180Z,8.94
2018-09-02T04:20:03.237Z,8.96
2018-09-02T04:21:03.294Z,8.86
2018-09-02T04:22:03.355Z,8.86
2018-09-02T04:23:03.411Z,8.83
2018-09-02T04:24:03.469Z,8.89
2018-09-02T04:25:03.532Z,8.94
2018-09-02T04:26:03.627Z,8.94
2018-09-02T04:27:03.644Z,8.89
2018-09-02T04:28:03.702Z,8.91
2018-09-02T04:29:03.762Z,9.01
2018-09-02T04:30:03.818Z,8.94
2018-09-02T04:31:03.878Z,8.94
2018-09-02T04:32:03.934Z,8.96
2018-09-02T04:33:03.993Z,8.91
2018-09-02T04:34:04.052Z,8.89
2018-09-02T04:35:04.112Z,8.89
2018-09-02T04:36:04.169Z,8.94
2018-09-02T04:37:04.226Z,8.94
2018-09-02T04:38:04.286Z,8.83
2018-09-02T04:39:04.344Z,8.78
2018-09-02T04:40:04.401Z,8.75
2018-09-02T04:41:04.459Z,8.78
2018-09-02T04:42:04.519Z,8.89
2018-09-02T04:43:04.576Z,8.97
2018-09-02T04:44:04.637Z,8.93
2018-09-02T04:45:04.757Z,8.94
2018-09-02T04:46:04.752Z,8.88
2018-09-02T04:47:04.809Z,8.85
2018-09-02T04:48:04.867Z,8.86
2018-09-02T04:49:04.925Z,8.89
2018-09-02T04:50:04.982Z,8.86
2018-09-02T04:51:05.042Z,8.89
2018-09-02T04:52:05.099Z,8.97
2018-09-02T04:53:05.158Z,9.01
2018-09-02T04:54:05.217Z,8.89
2018-09-02T04:55:05.275Z,8.94
2018-09-02T04:56:05.337Z,8.98
2018-09-02T04:57:05.391Z,8.98
2018-09-02T04:58:05.464Z,8.93
2018-09-02T04:59:05.507Z,8.88
2018-09-02T05:00:05.612Z,8.89
2018-09-02T05:01:05.672Z,8.98
2018-09-02T05:02:05.681Z,8.96
2018-09-02T05:03:05.740Z,8.93
2018-09-02T05:04:05.797Z,8.96
2018-09-02T05:05:05.859Z,8.96
2018-09-02T05:06:05.914Z,8.91
2018-09-02T05:07:05.972Z,8.89
2018-09-02T05:08:06.031Z,8.89
2018-09-02T05:09:06.088Z,8.96
2018-09-02T05:10:06.147Z,9.03
2018-09-02T05:11:06.206Z,8.93
2018-09-02T05:12:06.263Z,8.82
2018-09-02T05:13:06.324Z,8.86
2018-09-02T05:14:06.424Z,8.88
2018-09-02T05:15:06.440Z,8.96
2018-09-02T05:16:06.499Z,9.01
2018-09-02T05:17:06.554Z,8.85
2018-09-02T05:18:06.613Z,8.89
2018-09-02T05:19:06.671Z,8.94
2018-09-02T05:20:06.730Z,8.79
2018-09-02T05:21:06.790Z,8.80
2018-09-02T05:22:06.848Z,8.85
2018-09-02T05:23:06.905Z,8.83
2018-09-02T05:24:06.962Z,8.89
2018-09-02T05:25:07.021Z,8.96
2018-09-02T05:26:07.079Z,8.91
2018-09-02T05:27:07.138Z,8.98
2018-09-02T05:28:07.197Z,8.97
2018-09-02T05:29:07.255Z,8.88
2018-09-02T05:30:07.313Z,8.97
2018-09-02T05:31:07.372Z,8.94
2018-09-02T05:32:07.429Z,8.94
2018-09-02T05:33:07.488Z,8.86
2018-09-02T05:34:07.547Z,8.88
2018-09-02T05:35:07.606Z,8.89
2018-09-02T05:36:07.663Z,8.94
2018-09-02T05:37:07.723Z,8.93
2018-09-02T05:38:07.782Z,9.06
2018-09-02T05:39:07.838Z,8.96
2018-09-02T05:40:07.896Z,8.96
2018-09-02T05:41:07.955Z,8.97
2018-09-02T05:42:08.015Z,9.08
2018-09-02T05:43:08.072Z,9.23
2018-09-02T05:44:08.144Z,9.34
2018-09-02T05:45:08.189Z,9.38
2018-09-02T05:46:08.247Z,9.48
2018-09-02T05:47:08.306Z,9.34
2018-09-02T05:48:08.371Z,9.40
2018-09-02T05:49:08.424Z,9.50
2018-09-02T05:50:08.481Z,9.48
2018-09-02T05:51:08.543Z,9.45
2018-09-02T05:52:08.598Z,9.40
2018-09-02T05:53:08.658Z,9.38
2018-09-02T05:54:08.716Z,9.45
2018-09-02T05:55:08.776Z,9.32
2018-09-02T05:56:08.831Z,9.34
2018-09-02T05:57:08.891Z,9.49
2018-09-02T05:58:08.950Z,9.53
2018-09-02T05:59:09.009Z,9.50
2018-09-02T06:00:09.067Z,9.53
2018-09-02T06:01:09.126Z,9.48
2018-09-02T06:02:09.185Z,9.31
2018-09-02T06:03:09.243Z,9.30
2018-09-02T06:04:09.301Z,9.31
2018-09-02T06:05:09.361Z,9.37
2018-09-02T06:06:09.419Z,9.32
2018-09-02T06:07:09.478Z,9.42
2018-09-02T06:08:09.541Z,9.37
2018-09-02T06:09:09.597Z,9.49
2018-09-02T06:10:09.654Z,9.35
2018-09-02T06:11:09.719Z,9.52
2018-09-02T06:12:09.775Z,9.49
2018-09-02T06:13:09.830Z,9.59
2018-09-02T06:14:09.889Z,9.65
2018-09-02T06:15:09.950Z,9.71
2018-09-02T06:16:10.006Z,9.63
2018-09-02T06:17:10.095Z,9.73
2018-09-02T06:18:10.125Z,9.71
2018-09-02T06:19:10.183Z,9.75
2018-09-02T06:20:10.243Z,9.78
2018-09-02T06:21:10.300Z,9.98
2018-09-02T06:22:10.360Z,9.95
2018-09-02T06:23:10.419Z,10.02
2018-09-02T06:24:10.477Z,10.14
2018-09-02T06:25:10.536Z,10.20
2018-09-02T06:26:10.595Z,10.16
2018-09-02T06:27:10.656Z,10.07
2018-09-02T06:28:10.714Z,10.22
2018-09-02T06:29:11.023Z,10.31
2018-09-02T06:30:10.905Z,10.32
2018-09-02T06:31:10.890Z,10.38
2018-09-02T06:32:10.947Z,10.36
2018-09-02T06:33:11.007Z,10.42
2018-09-02T06:34:11.068Z,10.47
2018-09-02T06:35:11.126Z,10.51
2018-09-02T06:36:11.185Z,10.43
2018-09-02T06:37:11.244Z,10.54
2018-09-02T06:38:11.303Z,10.60
2018-09-02T06:39:11.364Z,10.60
2018-09-02T06:40:11.422Z,10.60
2018-09-02T06:41:11.481Z,10.73
2018-09-02T06:42:11.541Z,10.69
2018-09-02T06:43:11.600Z,10.81
2018-09-02T06:44:11.659Z,10.80
2018-09-02T06:45:11.718Z,10.90
2018-09-02T06:46:11.779Z,10.87
2018-09-02T06:47:11.838Z,10.91
2018-09-02T06:48:11.899Z,10.94
2018-09-02T06:49:11.957Z,11.02
2018-09-02T06:50:12.015Z,11.08
2018-09-02T06:51:12.077Z,11.06
2018-09-02T06:52:12.134Z,11.09
2018-09-02T06:53:12.194Z,11.12
2018-09-02T06:54:12.254Z,11.19
2018-09-02T06:55:12.317Z,11.19
2018-09-02T06:56:12.375Z,11.17
2018-09-02T06:57:12.433Z,11.33
2018-09-02T06:58:12.494Z,11.30
2018-09-02T06:59:12.553Z,11.42
2018-09-02T07:00:12.612Z,11.49
2018-09-02T07:01:12.672Z,11.38
2018-09-02T07:02:12.731Z,11.48
2018-09-02T07:03:12.792Z,11.53
2018-09-02T07:04:12.851Z,11.45
2018-09-02T07:05:12.911Z,11.51
2018-09-02T07:06:12.970Z,11.67
2018-09-02T07:07:13.076Z,11.57
2018-09-02T07:08:13.091Z,11.64
2018-09-02T07:09:13.150Z,11.77
2018-09-02T07:10:13.210Z,11.79
2018-09-02T07:11:13.270Z,11.79
2018-09-02T07:12:13.329Z,11.78
2018-09-02T07:13:13.390Z,11.90
2018-09-02T07:14:13.483Z,12.11
2018-09-02T07:15:13.510Z,12.11
2018-09-02T07:16:13.568Z,12.25
2018-09-02T07:17:13.630Z,12.26
2018-09-02T07:18:13.690Z,12.33
2018-09-02T07:19:13.750Z,12.46
2018-09-02T07:20:13.903Z,12.46
2018-09-02T07:21:13.871Z,12.40
2018-09-02T07:22:13.950Z,12.55
2018-09-02T07:23:13.989Z,12.55
2018-09-02T07:24:14.050Z,12.48
2018-09-02T07:25:14.116Z,12.55
2018-09-02T07:26:14.171Z,12.62
2018-09-02T07:27:14.228Z,12.61
2018-09-02T07:28:14.306Z,12.73
2018-09-02T07:29:14.351Z,12.70
2018-09-02T07:30:14.408Z,12.71
2018-09-02T07:31:14.475Z,12.74
2018-09-02T07:32:14.531Z,12.80
2018-09-02T07:33:14.590Z,12.92
2018-09-02T07:34:14.651Z,13.06
2018-09-02T07:35:14.710Z,12.99
2018-09-02T07:36:14.768Z,13.09
2018-09-02T07:37:15.292Z,13.06
2018-09-02T07:38:14.891Z,13.25
2018-09-02T07:39:14.951Z,13.31
2018-09-02T07:40:15.010Z,13.43
2018-09-02T07:41:15.071Z,13.44
2018-09-02T07:42:15.131Z,13.54
2018-09-02T07:43:15.192Z,13.61
2018-09-02T07:44:15.350Z,13.63
2018-09-02T07:45:15.315Z,13.69
2018-09-02T07:46:15.373Z,13.81
2018-09-02T07:47:15.434Z,13.87
2018-09-02T07:48:15.494Z,13.93
2018-09-02T07:49:15.555Z,13.93
2018-09-02T07:50:15.616Z,14.02
2018-09-02T07:51:15.678Z,14.08
2018-09-02T07:52:15.737Z,14.08
2018-09-02T07:53:15.798Z,14.13
2018-09-02T07:54:15.858Z,14.26
2018-09-02T07:55:15.921Z,14.21
2018-09-02T07:56:15.980Z,14.24
2018-09-02T07:57:16.041Z,14.35
2018-09-02T07:58:16.102Z,14.35
2018-09-02T07:59:16.163Z,14.49
2018-09-02T08:00:16.223Z,14.60
2018-09-02T08:01:16.285Z,14.57
2018-09-02T08:02:16.348Z,14.72
2018-09-02T08:03:16.412Z,14.75
2018-09-02T08:04:16.468Z,14.75
2018-09-02T08:05:16.529Z,14.83
2018-09-02T08:06:16.590Z,14.87
2018-09-02T08:07:16.655Z,15.03
2018-09-02T08:08:16.712Z,15.12
2018-09-02T08:09:16.775Z,15.37
2018-09-02T08:10:16.835Z,15.44
2018-09-02T08:11:16.897Z,15.60
2018-09-02T08:12:17.001Z,15.56
2018-09-02T08:13:17.020Z,15.58
2018-09-02T08:14:17.083Z,15.62
2018-09-02T08:15:17.479Z,15.67
2018-09-02T08:16:17.204Z,15.81
2018-09-02T08:17:17.265Z,15.86
2018-09-02T08:18:17.329Z,15.86
2018-09-02T08:19:17.395Z,16.06
2018-09-02T08:20:17.449Z,16.07
2018-09-02T08:21:17.514Z,16.26
2018-09-02T08:22:17.574Z,16.32
2018-09-02T08:23:17.636Z,16.45
2018-09-02T08:24:17.698Z,16.52
2018-09-02T08:25:17.760Z,16.66
2018-09-02T08:26:17.823Z,16.82
2018-09-02T08:27:17.886Z,16.99
2018-09-02T08:28:17.946Z,17.09
2018-09-02T08:29:18.010Z,17.22
2018-09-02T08:30:18.073Z,17.38
2018-09-02T08:31:18.135Z,17.46
2018-09-02T08:32:18.197Z,17.49
2018-09-02T08:33:18.261Z,17.63
2018-09-02T08:34:18.324Z,17.66
2018-09-02T08:35:18.387Z,17.77
2018-09-02T08:36:18.451Z,17.81
2018-09-02T08:37:18.514Z,17.98
2018-09-02T08:38:18.576Z,18.11
2018-09-02T08:39:18.650Z,18.31
2018-09-02T08:40:18.704Z,18.32
2018-09-02T08:41:18.780Z,18.16
2018-09-02T08:42:18.830Z,18.21
2018-09-02T08:43:18.895Z,18.42
2018-09-02T08:44:18.973Z,18.57
2018-09-02T08:45:19.021Z,18.74
2018-09-02T08:46:19.085Z,18.78
2018-09-02T08:47:19.153Z,18.83
2018-09-02T08:48:19.212Z,18.87
2018-09-02T08:49:19.277Z,19.06
2018-09-02T08:50:19.365Z,19.09
2018-09-02T08:51:19.406Z,19.13
2018-09-02T08:52:19.468Z,19.16
2018-09-02T08:53:19.533Z,19.31
2018-09-02T08:54:19.597Z,19.39
2018-09-02T08:55:19.664Z,19.49
2018-09-02T08:56:19.725Z,19.49
2018-09-02T08:57:19.834Z,19.53
2018-09-02T08:58:19.855Z,19.65
2018-09-02T08:59:19.917Z,19.49
2018-09-02T09:00:19.983Z,19.52
2018-09-02T09:01:20.047Z,19.65
2018-09-02T09:02:20.113Z,19.72
2018-09-02T09:03:20.176Z,19.82
2018-09-02T09:04:20.241Z,19.61
2018-09-02T09:05:20.307Z,19.64
2018-09-02T09:06:20.370Z,19.52
2018-09-02T09:07:20.966Z,19.57
2018-09-02T09:08:20.713Z,19.60
2018-09-02T09:09:20.733Z,19.68
2018-09-02T09:10:20.630Z,19.60
2018-09-02T09:11:20.695Z,19.65
2018-09-02T09:12:20.759Z,19.83
2018-09-02T09:13:20.823Z,19.94
2018-09-02T09:14:20.888Z,19.95
2018-09-02T09:15:20.954Z,19.78
2018-09-02T09:16:21.029Z,19.68
2018-09-02T09:17:21.083Z,19.53
2018-09-02T09:18:21.146Z,19.55
2018-09-02T09:19:21.212Z,19.46
2018-09-02T09:20:21.277Z,19.45
2018-09-02T09:21:21.341Z,19.52
2018-09-02T09:22:21.407Z,19.57
2018-09-02T09:23:21.470Z,19.65
2018-09-02T09:24:21.534Z,19.78
2018-09-02T09:25:21.599Z,19.90
2018-09-02T09:26:21.664Z,19.86
2018-09-02T09:27:21.729Z,19.98
2018-09-02T09:28:21.792Z,19.82
2018-09-02T09:29:21.857Z,19.82
2018-09-02T09:30:21.923Z,19.85
2018-09-02T09:31:21.987Z,19.86
2018-09-02T09:32:22.118Z,19.98
2018-09-02T09:33:22.115Z,20.04
2018-09-02T09:34:22.181Z,19.97
2018-09-02T09:35:22.246Z,20.02
2018-09-02T09:36:22.309Z,20.20
2018-09-02T09:37:22.374Z,20.15
2018-09-02T09:38:22.439Z,20.12
2018-09-02T09:39:22.504Z,20.10
2018-09-02T09:40:22.568Z,20.01
2018-09-02T09:41:22.634Z,19.97
2018-09-02T09:42:22.698Z,20.04
2018-09-02T09:43:22.761Z,19.98
2018-09-02T09:44:22.826Z,20.07
2018-09-02T09:45:22.891Z,20.12
2018-09-02T09:46:22.956Z,20.04
2018-09-02T09:47:23.030Z,20.10
2018-09-02T09:48:23.087Z,19.98
2018-09-02T09:49:23.150Z,20.00
2018-09-02T09:50:23.214Z,19.90
2018-09-02T09:51:23.279Z,19.95
2018-09-02T09:52:23.383Z,20.07
2018-09-02T09:53:23.407Z,19.97
2018-09-02T09:54:23.472Z,19.97
2018-09-02T09:55:23.551Z,19.95
2018-09-02T09:56:23.602Z,19.92
2018-09-02T09:57:23.665Z,19.98
2018-09-02T09:58:23.731Z,20.15
2018-09-02T09:59:23.795Z,20.23
2018-09-02T10:00:23.859Z,20.20
2018-09-02T10:01:23.924Z,20.07
2018-09-02T10:02:23.989Z,19.95
2018-09-02T10:03:24.053Z,20.00
2018-09-02T10:04:24.117Z,20.04
2018-09-02T10:05:24.182Z,20.08
2018-09-02T10:06:24.246Z,20.22
2018-09-02T10:07:24.311Z,20.15
2018-09-02T10:08:24.375Z,20.33
2018-09-02T10:09:24.440Z,20.27
2018-09-02T10:10:24.531Z,20.30
2018-09-02T10:11:24.569Z,20.23
2018-09-02T10:12:24.632Z,20.31
2018-09-02T10:13:24.698Z,20.34
2018-09-02T10:14:24.762Z,20.34
2018-09-02T10:15:24.827Z,20.30
2018-09-02T10:16:24.891Z,20.19
2018-09-02T10:17:25.017Z,20.27
2018-09-02T10:18:25.021Z,19.95
2018-09-02T10:19:25.755Z,19.97
2018-09-02T10:20:25.148Z,20.01
2018-09-02T10:21:25.212Z,20.02
2018-09-02T10:22:25.281Z,19.98
2018-09-02T10:23:25.343Z,20.15
2018-09-02T10:24:25.410Z,20.05
2018-09-02T10:25:25.470Z,20.20
2018-09-02T10:26:25.535Z,19.98
2018-09-02T10:27:25.657Z,19.97
2018-09-02T10:28:25.663Z,19.98
2018-09-02T10:29:25.748Z,19.98
2018-09-02T10:30:25.793Z,20.07
2018-09-02T10:31:25.855Z,20.07
2018-09-02T10:32:25.919Z,20.19
2018-09-02T10:33:26.018Z,20.19
2018-09-02T10:34:26.049Z,20.23
2018-09-02T10:35:26.112Z,20.34
2018-09-02T10:36:26.179Z,20.20
2018-09-02T10:37:26.245Z,20.23
2018-09-02T10:38:26.305Z,20.31
2018-09-02T10:39:26.369Z,20.37
2018-09-02T10:40:26.432Z,20.41
2018-09-02T10:41:26.564Z,20.54
2018-09-02T10:42:26.564Z,20.60
2018-09-02T10:43:26.626Z,20.58
2018-09-02T10:44:26.689Z,20.51
2018-09-02T10:45:26.754Z,20.41
2018-09-02T10:46:26.821Z,20.40
2018-09-02T10:47:26.883Z,20.51
2018-09-02T10:48:26.947Z,20.57
2018-09-02T10:49:27.012Z,20.69
2018-09-02T10:50:27.076Z,20.58
2018-09-02T10:51:27.144Z,20.69
2018-09-02T10:52:27.206Z,20.81
2018-09-02T10:53:27.271Z,20.82
2018-09-02T10:54:27.334Z,20.81
2018-09-02T10:55:27.399Z,20.81
2018-09-02T10:56:27.464Z,20.91
2018-09-02T10:57:27.529Z,20.87
2018-09-02T10:58:27.594Z,20.93
2018-09-02T10:59:27.685Z,21.05
2018-09-02T11:00:27.723Z,20.97
2018-09-02T11:01:27.788Z,20.91
2018-09-02T11:02:27.854Z,20.96
2018-09-02T11:03:27.919Z,20.79
2018-09-02T11:04:27.983Z,20.90
2018-09-02T11:05:28.048Z,21.05
2018-09-02T11:06:28.114Z,21.08
2018-09-02T11:07:28.179Z,21.12
2018-09-02T11:08:28.243Z,21.26
2018-09-02T11:09:28.311Z,21.27
2018-09-02T11:10:28.374Z,21.27
2018-09-02T11:11:28.439Z,21.28
2018-09-02T11:12:28.504Z,21.27
2018-09-02T11:13:28.980Z,21.28
2018-09-02T11:14:28.635Z,21.43
2018-09-02T11:15:28.700Z,21.43
2018-09-02T11:16:28.767Z,21.34
2018-09-02T11:17:28.830Z,21.46
2018-09-02T11:18:28.898Z,21.58
2018-09-02T11:19:28.961Z,21.59
2018-09-02T11:20:29.041Z,21.58
2018-09-02T11:21:29.092Z,21.48
2018-09-02T11:22:29.158Z,21.49
2018-09-02T11:23:29.223Z,21.43
2018-09-02T11:24:29.286Z,21.42
2018-09-02T11:25:29.353Z,21.51
2018-09-02T11:26:29.419Z,21.46
2018-09-02T11:27:29.484Z,21.48
2018-09-02T11:28:29.549Z,21.61
2018-09-02T11:29:29.615Z,21.56
2018-09-02T11:30:29.682Z,21.73
2018-09-02T11:31:29.764Z,21.71
2018-09-02T11:32:29.811Z,21.75
2018-09-02T11:33:29.881Z,21.77
2018-09-02T11:34:29.942Z,21.98
2018-09-02T11:35:30.010Z,22.04
2018-09-02T11:36:30.074Z,22.06
2018-09-02T11:37:30.142Z,22.17
2018-09-02T11:38:30.207Z,22.19
2018-09-02T11:39:30.271Z,22.14
2018-09-02T11:40:30.337Z,22.41
2018-09-02T11:41:30.403Z,22.45
2018-09-02T11:42:30.469Z,22.19
2018-09-02T11:43:30.536Z,22.06
2018-09-02T11:44:30.601Z,21.85
2018-09-02T11:45:30.667Z,22.06
2018-09-02T11:46:30.734Z,22.11
2018-09-02T11:47:30.800Z,22.05
2018-09-02T11:48:30.865Z,22.01
2018-09-02T11:49:30.933Z,21.91
2018-09-02T11:50:30.998Z,21.74
2018-09-02T11:51:31.065Z,21.75
2018-09-02T11:52:31.131Z,21.75
2018-09-02T11:53:31.196Z,21.75
2018-09-02T11:54:31.264Z,21.75
2018-09-02T11:55:31.329Z,21.90
2018-09-02T11:56:31.394Z,21.90
2018-09-02T11:57:31.462Z,22.02
2018-09-02T11:58:31.526Z,22.23
2018-09-02T11:59:31.592Z,22.15
2018-09-02T12:00:31.658Z,21.94
2018-09-02T12:01:31.723Z,22.17
2018-09-02T12:02:32.423Z,22.30
2018-09-02T12:03:31.861Z,22.30
2018-09-02T12:04:31.921Z,22.27
2018-09-02T12:05:31.990Z,22.06
2018-09-02T12:06:32.054Z,22.12
2018-09-02T12:07:32.121Z,22.19
2018-09-02T12:08:32.185Z,22.19
2018-09-02T12:09:32.251Z,22.27
2018-09-02T12:10:32.323Z,22.35
2018-09-02T12:11:32.401Z,22.27
2018-09-02T12:12:32.450Z,22.27
2018-09-02T12:13:32.516Z,22.36
2018-09-02T12:14:32.761Z,22.27
2018-09-02T12:15:32.649Z,22.44
2018-09-02T12:16:32.715Z,22.49
2018-09-02T12:17:32.781Z,22.49
2018-09-02T12:18:32.849Z,22.46
2018-09-02T12:19:32.913Z,22.51
2018-09-02T12:20:32.979Z,22.15
2018-09-02T12:21:33.050Z,22.15
2018-09-02T12:22:33.112Z,22.12
2018-09-02T12:23:33.180Z,22.06
2018-09-02T12:24:33.245Z,22.06
2018-09-02T12:25:33.328Z,22.12
2018-09-02T12:26:33.381Z,22.19
2018-09-02T12:27:33.448Z,22.11
2018-09-02T12:28:33.509Z,22.05
2018-09-02T12:29:33.591Z,21.94
2018-09-02T12:30:33.643Z,22.01
2018-09-02T12:31:33.818Z,22.05
2018-09-02T12:32:33.774Z,21.91
2018-09-02T12:33:33.840Z,21.85
2018-09-02T12:34:33.906Z,21.82
2018-09-02T12:35:33.972Z,21.77
2018-09-02T12:36:34.038Z,21.75
2018-09-02T12:37:34.106Z,21.83
2018-09-02T12:38:34.169Z,21.81
2018-09-02T12:39:34.236Z,21.79
2018-09-02T12:43:00.137Z,21.71
2018-09-02T12:44:00.202Z,21.67
2018-09-02T12:45:00.268Z,21.64
2018-09-02T12:46:00.334Z,21.56
2018-09-02T12:47:00.400Z,21.53
2018-09-02T12:48:00.575Z,21.56
2018-09-02T12:49:00.531Z,21.58
2018-09-02T12:50:00.595Z,21.56
2018-09-02T12:51:00.660Z,21.56
2018-09-02T12:52:00.724Z,21.55
2018-09-02T12:53:00.791Z,21.42
2018-09-02T12:54:00.856Z,21.31
2018-09-02T12:55:00.919Z,21.33
2018-09-02T12:56:00.985Z,21.27
2018-09-02T12:57:01.050Z,21.24
2018-09-02T12:58:01.116Z,21.34
2018-09-02T12:59:01.189Z,21.34
2018-09-02T13:00:01.244Z,21.26
2018-09-02T13:01:01.310Z,21.27
2018-09-02T13:02:02.027Z,21.21
2018-09-02T13:03:02.253Z,21.22
2018-09-02T13:04:01.503Z,21.21
2018-09-02T13:05:01.567Z,21.26
2018-09-02T13:06:01.632Z,21.30
2018-09-02T13:07:01.695Z,21.18
2018-09-02T13:08:01.911Z,21.22
2018-09-02T13:09:01.826Z,21.16
2018-09-02T13:10:01.890Z,21.26
2018-09-02T13:11:01.953Z,21.43